createdAt,value
2023-02-11T00:01:32.007Z,14.00
2023-02-11T00:04:00.971Z,14.70
2023-02-11T00:06:31.279Z,15.10
2023-02-11T00:09:00.412Z,15.10
2023-02-11T00:11:32.866Z,16.00
2023-02-11T00:14:03.477Z,16.50
2023-02-11T00:16:32.934Z,15.70
2023-02-11T00:19:02.718Z,18.30
2023-02-11T00:21:32.597Z,14.20
2023-02-11T00:24:02.489Z,15.50
2023-02-11T00:26:33.529Z,14.50
2023-02-11T00:29:02.351Z,16.20
2023-02-11T00:31:35.068Z,15.30
2023-02-11T00:34:04.195Z,15.50
2023-02-11T00:36:33.263Z,14.80
2023-02-11T00:39:01.978Z,15.60
2023-02-11T00:41:31.278Z,15.40
2023-02-11T00:45:21.793Z,14.60
2023-02-11T00:48:00.918Z,14.10
2023-02-11T00:50:30.266Z,14.00
2023-02-11T00:52:59.218Z,14.80
2023-02-11T00:55:28.024Z,14.90
2023-02-11T00:57:59.182Z,14.30
2023-02-11T01:00:28.227Z,14.30
2023-02-11T01:02:57.647Z,14.00
2023-02-11T01:05:26.698Z,12.70
2023-02-11T01:07:56.073Z,14.60
2023-02-11T01:10:30.613Z,14.20
2023-02-11T01:13:00.223Z,16.40
2023-02-11T01:15:29.348Z,15.00
2023-02-11T01:17:58.745Z,15.70
2023-02-11T01:20:28.338Z,17.00
2023-02-11T01:22:58.810Z,15.20
2023-02-11T01:25:27.391Z,16.80
2023-02-11T01:27:56.255Z,16.20
2023-02-11T01:30:25.174Z,16.80
2023-02-11T01:32:53.871Z,15.20
2023-02-11T01:35:22.895Z,16.30
2023-02-11T01:37:52.367Z,17.90
2023-02-11T01:40:21.259Z,15.20
2023-02-11T01:42:51.138Z,16.50
2023-02-11T01:45:46.486Z,18.60
2023-02-11T01:48:33.525Z,15.50
2023-02-11T01:51:14.867Z,16.30
2023-02-11T01:54:02.934Z,17.10
2023-02-11T01:56:52.360Z,17.10
2023-02-11T01:59:25.266Z,17.40
2023-02-11T02:01:59.675Z,17.80
2023-02-11T02:04:31.967Z,17.50
2023-02-11T02:07:04.546Z,18.70
2023-02-11T02:09:37.601Z,19.30
2023-02-11T02:12:07.893Z,17.70
2023-02-11T02:15:17.239Z,19.90
2023-02-11T02:18:31.308Z,17.70
2023-02-11T02:21:19.813Z,20.10
2023-02-11T02:24:12.539Z,18.90
2023-02-11T02:27:02.139Z,18.90
2023-02-11T02:29:49.770Z,18.70
2023-02-11T02:32:27.815Z,19.00
2023-02-11T02:35:10.815Z,18.80
2023-02-11T02:37:58.365Z,19.90
2023-02-11T02:40:33.867Z,18.80
2023-02-11T02:43:02.541Z,19.70
2023-02-11T02:45:31.215Z,19.70
2023-02-11T02:48:00.387Z,19.90
2023-02-11T02:50:35.672Z,18.00
2023-02-11T02:53:17.040Z,18.40
2023-02-11T02:56:06.938Z,18.00
2023-02-11T02:58:51.289Z,17.10
2023-02-11T03:01:43.970Z,17.20
2023-02-11T03:04:38.860Z,18.00
2023-02-11T03:07:21.678Z,19.90
2023-02-11T03:10:03.903Z,17.30
2023-02-11T03:12:33.157Z,20.00
2023-02-11T03:15:04.969Z,19.00
2023-02-11T03:17:34.441Z,18.20
2023-02-11T03:20:04.777Z,18.80
2023-02-11T03:22:35.794Z,17.60
2023-02-11T03:25:04.919Z,20.70
2023-02-11T03:27:43.417Z,19.00
2023-02-11T03:30:44.410Z,21.00
2023-02-11T03:33:18.670Z,18.80
2023-02-11T03:35:56.274Z,19.10
2023-02-11T03:38:32.335Z,18.60
2023-02-11T03:41:04.732Z,16.90
2023-02-11T03:43:36.590Z,17.40
2023-02-11T03:46:05.927Z,18.00
2023-02-11T03:48:46.654Z,19.50
2023-02-11T03:51:15.654Z,18.50
2023-02-11T03:53:46.967Z,19.50
2023-02-11T03:56:18.825Z,23.30
2023-02-11T03:58:48.748Z,22.20
2023-02-11T04:01:19.836Z,23.50
2023-02-11T04:03:48.606Z,26.00
2023-02-11T04:06:17.282Z,22.90
2023-02-11T04:08:47.393Z,26.00
2023-02-11T04:11:16.852Z,21.50
2023-02-11T04:13:47.046Z,30.20
2023-02-11T04:16:16.017Z,31.40
2023-02-11T04:18:48.922Z,33.80
2023-02-11T04:21:21.073Z,35.20
2023-02-11T04:23:55.503Z,40.00
2023-02-11T04:26:24.397Z,41.50
2023-02-11T04:28:53.136Z,47.10
2023-02-11T04:31:22.149Z,38.30
2023-02-11T04:33:51.943Z,40.20
2023-02-11T04:36:24.886Z,33.70
2023-02-11T04:38:53.896Z,36.00
2023-02-11T04:41:23.246Z,38.60
2023-02-11T04:44:00.126Z,46.40
2023-02-11T04:46:34.621Z,48.70
2023-02-11T04:49:03.964Z,43.10
2023-02-11T04:51:33.997Z,33.90
2023-02-11T04:54:05.927Z,32.90
2023-02-11T04:56:38.644Z,32.20
2023-02-11T04:59:07.517Z,37.50
2023-02-11T05:01:36.721Z,43.30
2023-02-11T05:04:11.464Z,45.00
2023-02-11T05:06:40.928Z,38.70
2023-02-11T05:09:13.387Z,33.30
2023-02-11T05:11:42.226Z,35.00
2023-02-11T05:14:11.200Z,33.90
2023-02-11T05:16:40.157Z,32.30
2023-02-11T05:19:09.565Z,31.80
2023-02-11T05:21:40.105Z,30.40
2023-02-11T05:24:11.402Z,30.30
2023-02-11T05:26:40.731Z,34.00
2023-02-11T05:29:11.176Z,29.50
2023-02-11T05:31:43.239Z,38.40
2023-02-11T05:34:12.140Z,35.40
2023-02-11T05:36:40.844Z,35.40
2023-02-11T05:39:09.609Z,40.10
2023-02-11T05:41:38.501Z,34.10
2023-02-11T05:44:07.271Z,33.90
2023-02-11T05:46:36.306Z,37.70
2023-02-11T05:49:05.402Z,35.70
2023-02-11T05:51:34.252Z,39.00
2023-02-11T05:54:03.934Z,32.80
2023-02-11T05:56:32.976Z,30.40
2023-02-11T05:59:01.863Z,32.30
2023-02-11T06:01:30.895Z,30.60
2023-02-11T06:03:59.897Z,31.30
2023-02-11T06:06:28.851Z,34.10
2023-02-11T06:09:00.392Z,36.80
2023-02-11T06:11:29.095Z,33.10
2023-02-11T06:14:00.015Z,36.30
2023-02-11T06:16:28.813Z,40.50
2023-02-11T06:18:58.212Z,33.90
2023-02-11T06:21:42.468Z,33.50
2023-02-11T06:24:12.909Z,43.70
2023-02-11T06:26:42.628Z,43.90
2023-02-11T06:29:13.174Z,43.30
2023-02-11T06:31:41.969Z,42.70
2023-02-11T06:34:10.838Z,39.70
2023-02-11T06:36:44.422Z,40.70
2023-02-11T06:39:13.494Z,43.60
2023-02-11T06:41:42.226Z,46.30
2023-02-11T06:44:11.090Z,41.00
2023-02-11T06:46:41.401Z,35.70
2023-02-11T06:49:11.142Z,37.40
2023-02-11T06:51:40.021Z,36.90
2023-02-11T06:54:11.820Z,29.50
2023-02-11T06:56:41.355Z,32.90
2023-02-11T06:59:24.248Z,31.40
2023-02-11T07:02:11.989Z,30.10
2023-02-11T07:04:42.091Z,27.40
2023-02-11T07:07:10.671Z,27.10
2023-02-11T07:09:41.378Z,30.60
2023-02-11T07:12:13.653Z,27.80
2023-02-11T07:14:42.969Z,33.00
2023-02-11T07:17:11.818Z,30.90
2023-02-11T07:19:40.681Z,29.80
2023-02-11T07:22:09.567Z,31.40
2023-02-11T07:24:38.205Z,31.10
2023-02-11T07:27:07.792Z,33.30
2023-02-11T07:29:37.878Z,30.80
2023-02-11T07:32:06.977Z,36.00
2023-02-11T07:34:35.881Z,33.70
2023-02-11T07:37:04.905Z,32.60
2023-02-11T07:39:33.737Z,34.60
2023-02-11T07:42:02.428Z,32.20
2023-02-11T07:44:33.355Z,37.60
2023-02-11T07:47:05.452Z,37.20
2023-02-11T07:49:35.493Z,36.30
2023-02-11T07:52:04.264Z,37.00
2023-02-11T07:54:33.088Z,37.00
2023-02-11T07:57:01.818Z,37.80
2023-02-11T07:59:30.729Z,37.80
2023-02-11T08:01:59.658Z,33.20
2023-02-11T08:04:28.826Z,35.00
2023-02-11T08:06:59.395Z,40.20
2023-02-11T08:09:28.532Z,38.80
2023-02-11T08:11:57.415Z,40.10
2023-02-11T08:14:27.531Z,44.20
2023-02-11T08:16:58.573Z,40.40
2023-02-11T08:19:27.780Z,42.00
2023-02-11T08:21:57.280Z,35.10
2023-02-11T08:24:26.250Z,28.90
2023-02-11T08:26:57.562Z,32.70
2023-02-11T08:29:26.617Z,39.10
2023-02-11T08:31:55.630Z,31.60
2023-02-11T08:34:24.862Z,33.30
2023-02-11T08:36:54.299Z,33.00
2023-02-11T08:39:23.232Z,35.00
2023-02-11T08:41:54.884Z,33.00
2023-02-11T08:44:24.209Z,34.10
2023-02-11T08:46:53.646Z,32.50
2023-02-11T08:49:22.681Z,32.50
2023-02-11T08:51:51.771Z,35.00
2023-02-11T08:54:21.467Z,32.50
2023-02-11T08:56:51.476Z,32.60
2023-02-11T08:59:22.197Z,30.70
2023-02-11T09:01:51.564Z,30.90
2023-02-11T09:04:20.448Z,29.90
2023-02-11T09:06:51.540Z,29.20
2023-02-11T09:09:21.299Z,28.40
2023-02-11T09:11:50.176Z,26.70
2023-02-11T09:14:20.989Z,26.90
2023-02-11T09:16:50.300Z,26.10
2023-02-11T09:19:21.102Z,27.70
2023-02-11T09:21:49.901Z,25.50
2023-02-11T09:24:18.841Z,24.70
2023-02-11T09:26:47.768Z,24.00
2023-02-11T09:29:16.498Z,26.40
2023-02-11T09:31:46.009Z,27.90
2023-02-11T09:34:16.171Z,24.50
2023-02-11T09:36:45.831Z,27.30
2023-02-11T09:39:17.320Z,25.40
2023-02-11T09:42:17.343Z,26.00
2023-02-11T09:44:46.771Z,24.30
2023-02-11T09:47:26.666Z,23.90
2023-02-11T09:50:16.913Z,25.00
2023-02-11T09:52:52.806Z,24.40
2023-02-11T09:55:30.494Z,21.10
2023-02-11T09:57:59.700Z,21.00
2023-02-11T10:00:33.870Z,21.50
2023-02-11T10:03:39.475Z,23.60
2023-02-11T10:06:30.963Z,22.40
2023-02-11T10:09:22.369Z,21.70
2023-02-11T10:12:28.783Z,21.40
2023-02-11T10:15:07.482Z,21.50
2023-02-11T10:18:15.120Z,21.60
2023-02-11T10:21:03.386Z,21.30
2023-02-11T10:23:35.570Z,18.10
2023-02-11T10:26:13.163Z,20.20
2023-02-11T10:28:44.844Z,21.00
2023-02-11T10:31:18.317Z,21.00
2023-02-11T10:33:55.072Z,21.30
2023-02-11T10:36:36.633Z,22.00
2023-02-11T10:39:26.853Z,21.50
2023-02-11T10:41:58.631Z,21.60
2023-02-11T10:45:01.038Z,21.90
2023-02-11T10:47:33.270Z,21.50
2023-02-11T10:50:03.917Z,21.80
2023-02-11T10:52:33.015Z,23.40
2023-02-11T10:55:14.997Z,22.30
2023-02-11T10:57:49.865Z,20.60
2023-02-11T11:00:41.626Z,21.90
2023-02-11T11:03:21.558Z,21.30
2023-02-11T11:06:00.020Z,20.70
2023-02-11T11:08:40.586Z,20.70
2023-02-11T11:11:14.403Z,20.20
2023-02-11T11:13:53.467Z,20.50
2023-02-11T11:16:27.782Z,19.70
2023-02-11T11:19:07.697Z,21.50
2023-02-11T11:21:46.590Z,22.20
2023-02-11T11:24:34.679Z,22.90
2023-02-11T11:27:04.720Z,22.00
2023-02-11T11:29:50.704Z,22.10
2023-02-11T11:32:24.070Z,22.90
2023-02-11T11:35:04.377Z,25.10
2023-02-11T11:37:33.827Z,20.60
2023-02-11T11:40:09.858Z,23.40
2023-02-11T11:42:39.491Z,25.10
2023-02-11T11:45:20.274Z,24.60
2023-02-11T11:47:53.462Z,22.80
2023-02-11T11:50:42.359Z,23.60
2023-02-11T11:53:21.049Z,22.40
2023-02-11T11:56:15.295Z,26.40
2023-02-11T11:58:51.314Z,25.20
2023-02-11T12:01:39.199Z,24.00
2023-02-11T12:04:17.352Z,21.60
2023-02-11T12:06:46.101Z,23.70
2023-02-11T12:09:31.606Z,22.90
2023-02-11T12:12:17.404Z,22.90
2023-02-11T12:15:26.678Z,26.10
2023-02-11T12:18:10.534Z,24.20
2023-02-11T12:21:17.632Z,25.40
2023-02-11T12:24:06.931Z,24.50
2023-02-11T12:26:36.093Z,26.20
2023-02-11T12:29:32.637Z,22.90
2023-02-11T12:32:08.427Z,23.10
2023-02-11T12:35:01.330Z,24.70
2023-02-11T12:37:49.335Z,22.60
2023-02-11T12:40:34.524Z,23.40
2023-02-11T12:43:24.183Z,22.70
2023-02-11T12:46:17.988Z,23.40
2023-02-11T12:51:28.116Z,22.20
2023-02-11T12:54:24.694Z,24.20
2023-02-11T12:56:59.533Z,24.20
2023-02-11T13:00:09.004Z,22.00
2023-02-11T13:03:05.541Z,20.80
2023-02-11T13:05:43.900Z,23.00
2023-02-11T13:08:20.483Z,21.00
2023-02-11T13:10:53.614Z,24.20
2023-02-11T13:13:35.317Z,23.70
2023-02-11T13:16:08.618Z,24.60
2023-02-11T13:18:37.944Z,21.60
2023-02-11T13:21:11.630Z,22.80
2023-02-11T13:23:46.830Z,22.10
2023-02-11T13:26:42.032Z,23.30
2023-02-11T13:29:16.859Z,22.20
2023-02-11T13:32:14.191Z,22.20
2023-02-11T13:34:44.808Z,27.30
2023-02-11T13:37:23.678Z,21.30
2023-02-11T13:40:00.596Z,24.80
2023-02-11T13:42:29.724Z,23.90
2023-02-11T13:44:58.763Z,22.30
2023-02-11T13:47:30.931Z,25.80
2023-02-11T13:50:00.491Z,21.90
2023-02-11T13:52:37.720Z,22.20
2023-02-11T13:55:15.263Z,24.80
2023-02-11T13:57:44.222Z,24.10
2023-02-11T14:00:38.937Z,26.00
2023-02-11T14:03:30.624Z,23.30
2023-02-11T14:06:27.563Z,24.40
2023-02-11T14:09:10.324Z,24.30
2023-02-11T14:11:56.577Z,22.00
2023-02-11T14:14:33.756Z,25.00
2023-02-11T14:17:07.374Z,22.40
2023-02-11T14:19:49.602Z,25.80
2023-02-11T14:22:28.087Z,26.00
2023-02-11T14:25:02.555Z,23.00
2023-02-11T14:30:13.401Z,22.60
2023-02-11T14:33:15.863Z,26.80
2023-02-11T14:35:54.388Z,28.30
2023-02-11T14:38:48.428Z,26.20
2023-02-11T14:41:25.203Z,28.70
2023-02-11T14:43:55.595Z,29.90
2023-02-11T14:46:24.932Z,29.40
2023-02-11T14:48:55.424Z,32.10
2023-02-11T14:51:36.431Z,27.80
2023-02-11T14:54:17.999Z,28.30
2023-02-11T14:56:47.326Z,26.30
2023-02-11T14:59:19.943Z,29.10
2023-02-11T15:01:54.958Z,27.70
2023-02-11T15:04:32.018Z,25.20
2023-02-11T15:07:07.398Z,25.30
2023-02-11T15:09:43.357Z,25.00
2023-02-11T15:12:20.466Z,25.40
2023-02-11T15:14:55.550Z,27.80
2023-02-11T15:17:28.229Z,23.90
2023-02-11T15:20:00.416Z,24.20
2023-02-11T15:22:36.859Z,27.40
2023-02-11T15:25:17.597Z,27.00
2023-02-11T15:27:54.657Z,24.80
2023-02-11T15:30:23.977Z,24.90
2023-02-11T15:33:00.533Z,24.90
2023-02-11T15:35:35.319Z,25.00
2023-02-11T15:38:04.331Z,26.00
2023-02-11T15:40:37.580Z,26.40
2023-02-11T15:43:08.635Z,27.50
2023-02-11T15:45:58.287Z,23.80
2023-02-11T15:48:38.572Z,26.60
2023-02-11T15:51:22.097Z,26.50
2023-02-11T15:53:57.732Z,26.70
2023-02-11T15:56:43.826Z,28.70
2023-02-11T15:59:20.247Z,24.20
2023-02-11T16:01:49.401Z,26.40
2023-02-11T16:04:20.750Z,25.90
2023-02-11T16:06:51.105Z,23.80
2023-02-11T16:09:30.992Z,26.00
2023-02-11T16:12:07.691Z,25.20
2023-02-11T16:14:42.480Z,27.40
2023-02-11T16:17:13.646Z,24.90
2023-02-11T16:19:49.890Z,26.10
2023-02-11T16:22:21.236Z,24.60
2023-02-11T16:24:50.302Z,26.50
2023-02-11T16:27:24.104Z,26.10
2023-02-11T16:32:23.854Z,26.50
2023-02-11T16:34:55.584Z,28.10
2023-02-11T16:37:25.222Z,28.50
2023-02-11T16:39:56.262Z,27.20
2023-02-11T16:42:25.468Z,28.60
2023-02-11T16:44:54.497Z,28.30
2023-02-11T16:47:27.757Z,27.60
2023-02-11T16:49:56.566Z,26.70
2023-02-11T16:52:25.395Z,28.30
2023-02-11T16:54:55.906Z,29.80
2023-02-11T16:57:26.950Z,29.60
2023-02-11T16:59:56.957Z,29.40
2023-02-11T17:02:33.694Z,31.20
2023-02-11T17:05:06.622Z,32.70
2023-02-11T17:07:36.892Z,29.30
2023-02-11T17:10:20.516Z,28.90
2023-02-11T17:12:51.460Z,29.40
2023-02-11T17:15:20.599Z,29.70
2023-02-11T17:17:49.195Z,31.60
2023-02-11T17:20:18.563Z,32.30
2023-02-11T17:22:47.482Z,33.00
2023-02-11T17:25:16.582Z,34.00
2023-02-11T17:27:45.762Z,34.00
2023-02-11T17:30:15.556Z,31.20
2023-02-11T17:32:44.807Z,34.60
2023-02-11T17:35:13.468Z,32.40
2023-02-11T17:37:42.227Z,30.10
2023-02-11T17:40:12.332Z,32.60
2023-02-11T17:42:41.394Z,30.70
2023-02-11T17:45:10.610Z,30.00
2023-02-11T17:47:39.467Z,27.20
2023-02-11T17:50:08.954Z,27.30
2023-02-11T17:52:43.284Z,25.90
2023-02-11T17:55:12.219Z,27.00
2023-02-11T17:57:41.423Z,30.70
2023-02-11T18:00:11.283Z,27.70
2023-02-11T18:02:44.795Z,29.40
2023-02-11T18:05:14.971Z,27.80
2023-02-11T18:07:44.241Z,29.70
2023-02-11T18:10:12.926Z,31.30
2023-02-11T18:12:41.703Z,30.10
2023-02-11T18:15:10.941Z,30.40
2023-02-11T18:17:40.123Z,29.20
2023-02-11T18:20:09.513Z,30.40
2023-02-11T18:22:41.286Z,31.90
2023-02-11T18:25:12.228Z,30.90
2023-02-11T18:27:41.666Z,29.80
2023-02-11T18:30:20.816Z,28.60
2023-02-11T18:32:56.257Z,28.40
2023-02-11T18:35:25.650Z,29.80
2023-02-11T18:37:56.916Z,27.10
2023-02-11T18:40:26.155Z,27.00
2023-02-11T18:42:57.512Z,28.20
2023-02-11T18:45:29.440Z,26.80
2023-02-11T18:48:02.051Z,24.00
2023-02-11T18:50:31.075Z,25.50
2023-02-11T18:52:59.827Z,26.10
2023-02-11T18:55:28.672Z,26.70
2023-02-11T18:57:57.468Z,26.00
2023-02-11T19:00:26.800Z,23.30
2023-02-11T19:02:55.646Z,26.40
2023-02-11T19:05:28.955Z,23.80
2023-02-11T19:07:57.797Z,23.50
2023-02-11T19:10:27.070Z,22.10
2023-02-11T19:12:59.426Z,21.90
2023-02-11T19:15:33.089Z,23.30
2023-02-11T19:18:02.168Z,22.80
2023-02-11T19:20:33.647Z,22.90
2023-02-11T19:23:02.567Z,23.00
2023-02-11T19:25:31.461Z,22.20
2023-02-11T19:28:00.632Z,22.30
2023-02-11T19:30:29.614Z,23.50
2023-02-11T19:32:59.278Z,22.30
2023-02-11T19:35:28.193Z,19.90
2023-02-11T19:37:57.458Z,22.50
2023-02-11T19:40:26.638Z,20.80
2023-02-11T19:42:55.812Z,22.80
2023-02-11T19:45:26.670Z,23.20
2023-02-11T19:47:56.981Z,23.00
2023-02-11T19:50:25.896Z,21.90
2023-02-11T19:52:55.627Z,21.20
2023-02-11T19:55:24.564Z,23.80
2023-02-11T19:57:53.354Z,23.50
2023-02-11T20:00:23.837Z,21.50
2023-02-11T20:02:58.413Z,20.90
2023-02-11T20:05:27.378Z,19.50
2023-02-11T20:07:57.079Z,18.20
2023-02-11T20:10:26.525Z,22.70
2023-02-11T20:12:55.318Z,18.90
2023-02-11T20:15:24.740Z,21.10
2023-02-11T20:17:53.707Z,21.30
2023-02-11T20:20:23.014Z,18.60
2023-02-11T20:22:55.026Z,20.30
2023-02-11T20:25:24.908Z,20.90
2023-02-11T20:27:54.419Z,19.80
2023-02-11T20:30:24.037Z,21.10
2023-02-11T20:32:53.918Z,19.20
2023-02-11T20:35:23.563Z,23.20
2023-02-11T20:37:53.180Z,20.20
2023-02-11T20:40:22.046Z,19.80
2023-02-11T20:42:51.355Z,21.00
2023-02-11T20:45:20.351Z,21.90
2023-02-11T20:47:49.210Z,20.20
2023-02-11T20:50:18.207Z,18.20
2023-02-11T20:52:48.804Z,19.30
2023-02-11T20:55:18.188Z,17.40
2023-02-11T20:57:54.749Z,18.10
2023-02-11T21:00:23.906Z,18.50
2023-02-11T21:02:52.983Z,19.60
2023-02-11T21:05:22.193Z,18.80
2023-02-11T21:07:52.908Z,18.60
2023-02-11T21:10:21.651Z,17.20
2023-02-11T21:12:50.765Z,17.90
2023-02-11T21:15:19.947Z,18.80
2023-02-11T21:17:48.706Z,17.00
2023-02-11T21:20:18.192Z,19.30
2023-02-11T21:22:47.070Z,19.70
2023-02-11T21:25:16.394Z,18.00
2023-02-11T21:27:45.289Z,18.00
2023-02-11T21:30:14.733Z,17.30
2023-02-11T21:32:43.799Z,19.30
2023-02-11T21:35:13.457Z,18.50
2023-02-11T21:37:42.298Z,16.90
2023-02-11T21:40:11.741Z,18.10
2023-02-11T21:42:41.226Z,17.20
2023-02-11T21:45:10.608Z,18.40
2023-02-11T21:47:40.594Z,18.10
2023-02-11T21:50:10.091Z,20.70
2023-02-11T21:52:40.208Z,20.40
2023-02-11T21:55:09.703Z,19.90
2023-02-11T21:57:38.696Z,18.70
2023-02-11T22:00:09.579Z,18.30
2023-02-11T22:02:39.319Z,19.00
2023-02-11T22:05:08.874Z,18.00
2023-02-11T22:07:37.892Z,19.10
2023-02-11T22:10:08.334Z,18.10
2023-02-11T22:12:38.044Z,20.00
2023-02-11T22:15:07.501Z,16.90
2023-02-11T22:17:37.475Z,18.00
2023-02-11T22:20:07.188Z,19.20
2023-02-11T22:22:36.353Z,19.00
2023-02-11T22:25:05.437Z,16.70
2023-02-11T22:27:35.720Z,17.90
2023-02-11T22:30:05.203Z,20.20
2023-02-11T22:32:35.217Z,18.50
2023-02-11T22:35:04.052Z,17.10
2023-02-11T22:37:33.408Z,17.30
2023-02-11T22:40:02.721Z,18.20
2023-02-11T22:42:33.392Z,17.80
2023-02-11T22:45:03.596Z,17.60
2023-02-11T22:47:32.830Z,18.80
2023-02-11T22:50:02.245Z,19.60
2023-02-11T22:52:31.932Z,18.10
2023-02-11T22:55:01.629Z,18.30
2023-02-11T22:57:30.987Z,19.00
2023-02-11T23:00:00.102Z,19.60
2023-02-11T23:02:28.862Z,17.70
2023-02-11T23:05:00.196Z,19.80
2023-02-11T23:07:30.962Z,17.60
2023-02-11T23:10:00.271Z,18.30
2023-02-11T23:12:29.542Z,20.20
2023-02-11T23:14:58.320Z,19.10
2023-02-11T23:17:29.399Z,19.00
2023-02-11T23:19:58.682Z,19.20
2023-02-11T23:22:28.522Z,20.60
2023-02-11T23:24:57.453Z,18.60
2023-02-11T23:27:26.156Z,19.00
2023-02-11T23:29:57.259Z,19.30
2023-02-11T23:32:26.550Z,18.90
2023-02-11T23:34:55.789Z,20.40
2023-02-11T23:37:26.959Z,19.10
2023-02-11T23:39:56.486Z,18.50
2023-02-11T23:42:25.416Z,18.00
2023-02-11T23:44:56.169Z,19.80
2023-02-11T23:47:25.138Z,17.70
2023-02-11T23:49:58.095Z,18.30
2023-02-11T23:52:28.298Z,18.60
2023-02-11T23:54:57.123Z,19.20
2023-02-11T23:57:25.839Z,18.70
2023-02-11T23:59:54.623Z,18.70
